Time;durP1;ratioP1;P1;durP2;ratioP2;P2;SDS_P1;SDS_P2;PMS_P1;PMS_P2;Temp;Humidity;BMP_temperature;BMP_pressure;BME280_temperature;BME280_humidity;BME280_pressure;Samples;Min_cycle;Max_cycle;Signal;HPM_P1;HPM_P2
2023/08/26 00:00:07;;;;;;;5.30;2.97;;;21.80;99.90;;;;;;5016863;28;20029;-85
2023/08/26 00:02:33;;;;;;;6.35;2.92;;;21.60;99.90;;;;;;5000009;28;20061;-85
2023/08/26 00:04:59;;;;;;;4.88;2.85;;;21.50;99.90;;;;;;4999666;28;20068;-85
2023/08/26 00:07:24;;;;;;;4.35;2.53;;;21.50;99.90;;;;;;5000106;28;20022;-85
2023/08/26 00:09:50;;;;;;;6.25;2.95;;;21.50;99.90;;;;;;4999748;28;20066;-90
2023/08/26 00:12:16;;;;;;;7.55;2.80;;;21.70;99.90;;;;;;4999783;28;20371;-85
2023/08/26 00:14:41;;;;;;;4.18;2.67;;;21.70;99.90;;;;;;4999957;28;20486;-87
2023/08/26 00:17:07;;;;;;;6.57;3.10;;;21.80;99.90;;;;;;5016758;28;20033;-86
2023/08/26 00:19:32;;;;;;;5.13;2.70;;;21.90;99.90;;;;;;5017097;28;20109;-86
2023/08/26 00:22:00;;;;;;;6.72;3.10;;;21.90;99.90;;;;;;4999122;28;20026;-86
2023/08/26 00:24:26;;;;;;;5.43;2.75;;;21.90;99.90;;;;;;5017165;28;20026;-87
2023/08/26 00:26:52;;;;;;;7.60;3.22;;;21.90;99.90;;;;;;4999700;28;20022;-90
2023/08/26 00:29:17;;;;;;;6.03;3.03;;;21.90;99.90;;;;;;5001981;28;20084;-86
2023/08/26 00:31:43;;;;;;;7.78;3.40;;;22.00;99.90;;;;;;5008657;28;20061;-88
2023/08/26 00:34:08;;;;;;;6.65;3.22;;;22.00;99.90;;;;;;5010370;28;20026;-89
2023/08/26 00:36:34;;;;;;;6.53;2.90;;;22.00;99.90;;;;;;5013671;28;20030;-88
2023/08/26 00:39:00;;;;;;;5.90;3.60;;;21.90;99.90;;;;;;5011926;28;20034;-88
2023/08/26 00:41:26;;;;;;;7.35;3.30;;;21.90;99.90;;;;;;5017142;28;20048;-90
2023/08/26 00:43:52;;;;;;;7.35;3.00;;;21.90;99.90;;;;;;5005867;28;20538;-88
2023/08/26 00:46:18;;;;;;;6.32;3.50;;;21.80;99.90;;;;;;5006735;28;20471;-88
2023/08/26 00:48:43;;;;;;;8.02;3.08;;;21.80;99.90;;;;;;5006741;28;20037;-88
2023/08/26 00:51:10;;;;;;;5.72;2.85;;;21.80;99.90;;;;;;5005377;28;20026;-92
2023/08/26 00:53:36;;;;;;;5.47;3.30;;;21.70;99.90;;;;;;5003777;28;20034;-88
2023/08/26 00:56:02;;;;;;;5.88;2.92;;;21.70;99.90;;;;;;5002560;28;20382;-86
2023/08/26 00:58:30;;;;;;;3.92;2.83;;;21.80;99.90;;;;;;4981057;28;20029;-86
2023/08/26 01:00:56;;;;;;;9.93;3.38;;;21.80;99.90;;;;;;4978635;28;20030;-85
2023/08/26 01:03:21;;;;;;;3.95;2.42;;;21.70;99.90;;;;;;4997313;28;20036;-86
2023/08/26 01:05:47;;;;;;;5.28;2.17;;;21.70;99.90;;;;;;4979834;28;20031;-85
2023/08/26 01:08:13;;;;;;;4.00;2.60;;;21.70;99.90;;;;;;4979364;28;20062;-85
2023/08/26 01:10:42;;;;;;;5.72;2.47;;;21.70;99.90;;;;;;4979151;28;20526;-85
2023/08/26 01:13:12;;;;;;;4.32;2.20;;;21.60;99.90;;;;;;4996250;28;20480;-85
2023/08/26 01:15:42;;;;;;;4.63;2.28;;;21.60;99.90;;;;;;4979307;28;20053;-87
2023/08/26 01:18:13;;;;;;;5.45;2.17;;;21.60;99.90;;;;;;4995993;28;20022;-86
2023/08/26 01:20:42;;;;;;;4.13;2.35;;;21.60;99.90;;;;;;4996348;28;20066;-87
2023/08/26 01:23:17;;;;;;;3.72;2.33;;;21.60;99.90;;;;;;4978618;28;20087;-87
2023/08/26 01:25:42;;;;;;;5.55;2.28;;;21.60;99.90;;;;;;4979476;28;20033;-86
2023/08/26 01:28:08;;;;;;;4.18;2.35;;;21.60;99.90;;;;;;4978562;28;20406;-87
2023/08/26 01:30:35;;;;;;;3.92;2.42;;;21.70;99.90;;;;;;4979042;28;20034;-87
2023/08/26 01:33:10;;;;;;;5.38;2.90;;;21.60;99.90;;;;;;4993504;28;20072;-87
2023/08/26 01:35:42;;;;;;;5.18;2.53;;;21.70;99.90;;;;;;4998411;28;20423;-86
2023/08/26 01:38:08;;;;;;;5.00;2.90;;;21.60;99.90;;;;;;5015686;28;20053;-86
2023/08/26 01:40:35;;;;;;;3.90;2.70;;;21.60;99.90;;;;;;5015535;28;20045;-86
2023/08/26 01:43:03;;;;;;;5.20;2.70;;;21.60;99.90;;;;;;5014971;28;20046;-87
2023/08/26 01:45:28;;;;;;;4.03;3.08;;;21.60;99.90;;;;;;4998292;28;20065;-86
2023/08/26 01:47:54;;;;;;;4.68;2.72;;;21.60;99.90;;;;;;5015608;28;20026;-87
2023/08/26 01:50:20;;;;;;;6.80;2.85;;;21.60;99.90;;;;;;4997164;28;20034;-86
2023/08/26 01:52:45;;;;;;;4.72;2.85;;;21.60;99.90;;;;;;5014858;28;20034;-87
2023/08/26 01:55:11;;;;;;;6.53;2.92;;;21.60;99.90;;;;;;5013859;28;20026;-87
2023/08/26 01:57:36;;;;;;;6.75;3.22;;;21.60;99.90;;;;;;4998319;28;20048;-87
2023/08/26 02:00:03;;;;;;;7.10;3.38;;;21.60;99.90;;;;;;4997508;28;20033;-86
2023/08/26 02:02:29;;;;;;;4.45;2.88;;;21.60;99.90;;;;;;4997885;28;20026;-87
2023/08/26 02:04:54;;;;;;;6.32;2.80;;;21.60;99.90;;;;;;5015270;28;20172;-88
2023/08/26 02:07:20;;;;;;;5.57;3.10;;;21.50;99.90;;;;;;5015055;28;20030;-88
2023/08/26 02:09:45;;;;;;;7.20;3.20;;;21.60;99.90;;;;;;5015082;28;20473;-89
2023/08/26 02:12:11;;;;;;;4.53;3.17;;;21.60;99.90;;;;;;5014791;28;20037;-89
2023/08/26 02:14:36;;;;;;;6.80;3.00;;;21.60;99.90;;;;;;4997799;28;20105;-89
2023/08/26 02:17:02;;;;;;;7.53;3.60;;;21.60;99.90;;;;;;4997008;28;20513;-88
2023/08/26 02:19:28;;;;;;;8.90;3.30;;;21.50;99.90;;;;;;4997981;28;20030;-88
2023/08/26 02:21:55;;;;;;;6.00;3.30;;;21.50;99.90;;;;;;4997482;28;20080;-89
2023/08/26 02:24:20;;;;;;;5.45;2.92;;;21.60;99.90;;;;;;5014704;28;20030;-88
2023/08/26 02:26:46;;;;;;;7.57;3.22;;;21.60;99.90;;;;;;5015169;28;20430;-88
2023/08/26 02:29:11;;;;;;;8.00;3.58;;;21.60;99.90;;;;;;5014487;28;20033;-88
2023/08/26 02:31:37;;;;;;;4.55;2.83;;;21.60;99.90;;;;;;4997646;28;20033;-88
2023/08/26 02:34:03;;;;;;;7.90;3.35;;;21.60;99.90;;;;;;5014329;28;20420;-89
2023/08/26 02:36:28;;;;;;;7.88;3.25;;;21.60;99.90;;;;;;4997525;28;20026;-89
2023/08/26 02:38:54;;;;;;;8.30;3.17;;;21.50;99.90;;;;;;4997443;28;20101;-89
2023/08/26 02:41:19;;;;;;;7.18;2.88;;;21.60;99.90;;;;;;4996848;28;20030;-89
2023/08/26 02:43:45;;;;;;;6.10;3.20;;;21.50;99.90;;;;;;4997101;28;20053;-89
2023/08/26 02:46:10;;;;;;;5.07;2.75;;;21.50;99.90;;;;;;4997272;28;20064;-89
2023/08/26 02:48:36;;;;;;;8.50;3.00;;;21.50;99.90;;;;;;4997030;28;20459;-89
2023/08/26 02:51:02;;;;;;;3.53;2.90;;;21.50;99.90;;;;;;5013863;28;20034;-89
2023/08/26 02:53:29;;;;;;;8.93;3.15;;;21.50;99.90;;;;;;4997097;28;20030;-89
2023/08/26 02:55:55;;;;;;;7.07;2.70;;;21.50;99.90;;;;;;4997152;28;20040;-89
2023/08/26 02:58:22;;;;;;;7.22;3.40;;;21.50;99.90;;;;;;5013992;28;20471;-89
2023/08/26 03:00:47;;;;;;;9.35;3.00;;;21.50;99.90;;;;;;4997220;28;20030;-89
2023/08/26 03:03:14;;;;;;;4.43;2.90;;;21.50;99.90;;;;;;5013878;28;20080;-89
2023/08/26 03:05:39;;;;;;;8.95;3.08;;;21.40;99.90;;;;;;5014850;28;20049;-89
2023/08/26 03:08:06;;;;;;;5.47;2.75;;;21.40;99.90;;;;;;5000597;28;20026;-88
2023/08/26 03:10:32;;;;;;;7.22;3.10;;;21.40;99.90;;;;;;5018531;28;20084;-88
2023/08/26 03:12:58;;;;;;;4.32;2.60;;;21.40;99.90;;;;;;5018351;28;20030;-89
2023/08/26 03:15:27;;;;;;;8.98;2.95;;;21.40;99.90;;;;;;5000596;28;20578;-88
2023/08/26 03:17:53;;;;;;;9.73;3.33;;;21.30;99.90;;;;;;5000821;28;20026;-89
2023/08/26 03:20:19;;;;;;;6.47;3.17;;;21.40;99.90;;;;;;5000388;28;20065;-88
2023/08/26 03:22:45;;;;;;;6.30;2.95;;;21.30;99.90;;;;;;5018466;28;20034;-89
2023/08/26 03:25:11;;;;;;;5.32;2.85;;;21.40;99.90;;;;;;5000270;28;20122;-89
2023/08/26 03:27:37;;;;;;;3.55;2.72;;;21.30;99.90;;;;;;5018131;28;20050;-89
2023/08/26 03:30:03;;;;;;;4.97;3.15;;;21.30;99.90;;;;;;5017394;28;20034;-91
2023/08/26 03:32:28;;;;;;;12.38;3.78;;;21.30;99.90;;;;;;5000682;28;20045;-89
2023/08/26 03:34:54;;;;;;;7.95;3.13;;;21.20;99.90;;;;;;5000573;28;20452;-89
2023/08/26 03:37:20;;;;;;;9.05;3.28;;;21.30;99.90;;;;;;5017509;28;20030;-89
2023/08/26 03:39:45;;;;;;;7.35;2.65;;;21.30;99.90;;;;;;5000432;28;20030;-90
2023/08/26 03:42:11;;;;;;;6.15;2.95;;;21.20;99.90;;;;;;5000095;28;20045;-89
2023/08/26 03:44:36;;;;;;;8.43;2.70;;;21.20;99.90;;;;;;5000624;28;20175;-89
2023/08/26 03:47:03;;;;;;;6.80;2.90;;;21.30;99.90;;;;;;5000492;28;20029;-89
2023/08/26 03:49:30;;;;;;;8.38;2.72;;;21.30;99.90;;;;;;5000446;28;20041;-89
2023/08/26 03:51:55;;;;;;;8.02;3.35;;;21.20;99.90;;;;;;5000322;28;20133;-90
2023/08/26 03:54:21;;;;;;;4.20;2.50;;;21.30;99.90;;;;;;5000010;28;20049;-89
2023/08/26 03:56:47;;;;;;;4.88;2.67;;;21.20;99.90;;;;;;5017705;28;20076;-90
2023/08/26 03:59:12;;;;;;;4.60;2.97;;;21.20;99.90;;;;;;4999857;28;20030;-89
2023/08/26 04:01:38;;;;;;;6.63;2.95;;;21.10;99.90;;;;;;5000036;28;20032;-89
2023/08/26 04:04:04;;;;;;;5.82;2.60;;;21.10;99.90;;;;;;5017638;28;20486;-89
2023/08/26 04:06:31;;;;;;;5.63;2.85;;;21.10;99.90;;;;;;5017516;28;20028;-89
2023/08/26 04:08:57;;;;;;;8.25;2.85;;;21.10;99.90;;;;;;5017253;28;20018;-89
2023/08/26 04:11:22;;;;;;;5.05;3.10;;;21.10;99.90;;;;;;4999677;28;20072;-89
2023/08/26 04:13:48;;;;;;;6.20;2.55;;;21.00;99.90;;;;;;5000133;28;20121;-88
2023/08/26 04:16:15;;;;;;;6.47;2.70;;;21.00;99.90;;;;;;5016918;28;20459;-89
2023/08/26 04:18:42;;;;;;;7.15;2.72;;;21.00;99.90;;;;;;4999098;28;20025;-88
2023/08/26 04:21:09;;;;;;;7.38;2.72;;;21.00;99.90;;;;;;4999488;28;20026;-89
2023/08/26 04:23:34;;;;;;;5.80;2.85;;;21.00;99.90;;;;;;5000044;28;20041;-88
2023/08/26 04:26:00;;;;;;;6.10;3.00;;;21.00;99.90;;;;;;4999627;28;20410;-88
2023/08/26 04:28:26;;;;;;;8.40;3.30;;;21.00;99.90;;;;;;4999004;28;20116;-88
2023/08/26 04:30:52;;;;;;;5.57;3.03;;;21.00;99.90;;;;;;5017054;28;20041;-89
2023/08/26 04:33:19;;;;;;;5.47;2.60;;;21.00;99.90;;;;;;4999092;28;20030;-88
2023/08/26 04:35:44;;;;;;;6.45;2.60;;;21.00;99.90;;;;;;4999551;28;20028;-89
2023/08/26 04:38:10;;;;;;;7.43;2.85;;;21.00;99.90;;;;;;5016193;28;20026;-89
2023/08/26 04:40:35;;;;;;;7.05;2.83;;;20.90;99.90;;;;;;4999412;28;20041;-89
2023/08/26 04:43:01;;;;;;;6.20;2.78;;;20.90;99.90;;;;;;5016514;28;20399;-89
2023/08/26 04:45:26;;;;;;;6.95;2.78;;;20.90;99.90;;;;;;5016466;28;20045;-89
2023/08/26 04:47:52;;;;;;;7.55;2.40;;;20.90;99.90;;;;;;4999287;28;20029;-89
2023/08/26 04:50:18;;;;;;;3.78;2.22;;;20.90;99.90;;;;;;4998418;28;20030;-89
2023/08/26 04:52:43;;;;;;;6.32;2.80;;;20.90;99.90;;;;;;4999055;28;20125;-89
2023/08/26 04:55:10;;;;;;;5.80;2.92;;;20.90;99.90;;;;;;4998792;28;20026;-89
2023/08/26 04:57:36;;;;;;;11.52;3.05;;;20.90;99.90;;;;;;5016185;28;20024;-89
2023/08/26 05:00:08;;;;;;;6.03;2.63;;;20.90;99.90;;;;;;4999089;28;20041;-88
2023/08/26 05:02:33;;;;;;;4.93;3.35;;;20.90;99.90;;;;;;4999103;28;20478;-88
2023/08/26 05:04:59;;;;;;;8.50;2.85;;;20.90;99.90;;;;;;5016271;28;20052;-88
2023/08/26 05:07:24;;;;;;;6.45;2.72;;;20.90;99.90;;;;;;4998355;28;20033;-88
2023/08/26 05:09:50;;;;;;;5.47;2.35;;;20.90;99.90;;;;;;4998789;28;20037;-88
2023/08/26 05:12:16;;;;;;;7.47;3.10;;;20.80;99.90;;;;;;4998456;28;20108;-88
2023/08/26 05:14:42;;;;;;;10.10;3.80;;;20.80;99.90;;;;;;5016246;28;20030;-89
2023/08/26 05:17:07;;;;;;;7.72;2.72;;;20.80;99.90;;;;;;4998808;28;20033;-88
2023/08/26 05:19:33;;;;;;;8.45;2.75;;;20.80;99.90;;;;;;4998332;28;20524;-89
2023/08/26 05:21:58;;;;;;;7.43;3.05;;;20.90;99.90;;;;;;4998854;28;20045;-89
2023/08/26 05:24:25;;;;;;;5.32;2.47;;;20.90;99.90;;;;;;4998463;28;20022;-89
2023/08/26 05:26:52;;;;;;;6.60;2.78;;;20.80;99.90;;;;;;4998908;28;20186;-89
2023/08/26 05:29:18;;;;;;;7.05;2.92;;;20.90;99.90;;;;;;4997975;28;20482;-89
2023/08/26 05:31:45;;;;;;;5.10;2.70;;;20.90;99.90;;;;;;4997777;28;20034;-88
2023/08/26 05:34:11;;;;;;;8.52;3.05;;;20.90;99.90;;;;;;5015331;28;20026;-89
2023/08/26 05:36:36;;;;;;;6.15;3.00;;;21.00;99.90;;;;;;4998722;28;20033;-89
2023/08/26 05:39:02;;;;;;;7.95;3.17;;;21.00;99.90;;;;;;4998235;28;20459;-89
2023/08/26 05:41:27;;;;;;;6.95;2.60;;;21.00;99.90;;;;;;4998094;28;20096;-89
2023/08/26 05:43:53;;;;;;;4.80;2.83;;;21.00;99.90;;;;;;5015659;28;20430;-87
2023/08/26 05:46:18;;;;;;;10.18;2.78;;;21.10;99.90;;;;;;4998264;28;20030;-88
2023/08/26 05:48:44;;;;;;;7.20;2.38;;;21.00;99.90;;;;;;5015581;28;20053;-88
2023/08/26 05:51:10;;;;;;;12.05;3.00;;;21.00;99.90;;;;;;4998252;28;20029;-87
2023/08/26 05:53:36;;;;;;;7.75;3.00;;;21.00;99.90;;;;;;4997859;28;20056;-88
2023/08/26 05:56:01;;;;;;;8.27;2.83;;;21.00;99.90;;;;;;4998609;28;20083;-88
2023/08/26 05:58:27;;;;;;;6.75;3.45;;;21.00;99.90;;;;;;4997720;28;20120;-88
2023/08/26 06:00:52;;;;;;;6.22;2.65;;;21.10;99.90;;;;;;5015913;28;20041;-88
2023/08/26 06:03:18;;;;;;;9.15;3.35;;;21.20;99.90;;;;;;4998056;28;20115;-88
2023/08/26 06:05:44;;;;;;;5.63;2.67;;;21.20;99.90;;;;;;4998494;28;20037;-87
2023/08/26 06:08:09;;;;;;;8.23;2.67;;;21.20;99.90;;;;;;4998022;28;20025;-87
2023/08/26 06:10:35;;;;;;;5.47;2.67;;;21.20;99.90;;;;;;5014890;28;20092;-87
2023/08/26 06:13:01;;;;;;;6.95;2.63;;;21.30;99.90;;;;;;4998073;28;20069;-87
2023/08/26 06:15:27;;;;;;;5.97;2.33;;;21.20;99.90;;;;;;5015103;28;20462;-87
2023/08/26 06:17:52;;;;;;;10.13;2.38;;;21.20;99.90;;;;;;4997759;28;20076;-87
2023/08/26 06:20:18;;;;;;;5.82;2.38;;;21.20;99.90;;;;;;4997609;28;20430;-88
2023/08/26 06:22:45;;;;;;;3.50;1.70;;;21.20;99.90;;;;;;4998075;28;20431;-87
2023/08/26 06:25:11;;;;;;;7.40;1.77;;;21.20;99.90;;;;;;4997874;28;20518;-88
2023/08/26 06:27:37;;;;;;;4.78;2.10;;;21.20;99.90;;;;;;5014720;28;20030;-87
2023/08/26 06:30:03;;;;;;;6.35;1.90;;;21.30;99.90;;;;;;4997181;28;20030;-87
2023/08/26 06:32:29;;;;;;;3.30;1.70;;;21.40;99.90;;;;;;4997238;28;20022;-88
2023/08/26 06:34:55;;;;;;;5.75;1.90;;;21.40;99.90;;;;;;5015028;28;20029;-88
2023/08/26 06:37:21;;;;;;;5.18;1.90;;;21.30;99.90;;;;;;4996737;28;20025;-87
2023/08/26 06:39:47;;;;;;;2.75;1.70;;;21.30;99.90;;;;;;5014544;28;20036;-88
2023/08/26 06:42:12;;;;;;;2.22;1.50;;;21.30;99.90;;;;;;4996780;28;20036;-87
2023/08/26 06:44:38;;;;;;;5.43;1.65;;;21.30;99.90;;;;;;4996800;28;20046;-87
2023/08/26 06:47:06;;;;;;;4.60;1.60;;;21.30;99.90;;;;;;5014536;28;20105;-87
2023/08/26 06:49:31;;;;;;;3.92;1.98;;;21.30;99.90;;;;;;4996699;28;20038;-87
2023/08/26 06:51:57;;;;;;;7.97;1.60;;;21.30;99.90;;;;;;4996904;28;20030;-87
2023/08/26 06:54:23;;;;;;;4.05;1.60;;;21.30;99.90;;;;;;4996642;28;20426;-87
2023/08/26 06:56:48;;;;;;;6.18;1.60;;;21.20;99.90;;;;;;4997309;28;20030;-87
2023/08/26 06:59:14;;;;;;;3.55;1.70;;;21.30;99.90;;;;;;5014571;28;20374;-87
2023/08/26 07:01:39;;;;;;;3.97;1.60;;;21.30;99.90;;;;;;4996780;28;20026;-87
2023/08/26 07:04:07;;;;;;;2.60;1.55;;;21.30;99.90;;;;;;4997163;28;20022;-87
2023/08/26 07:06:33;;;;;;;6.30;1.65;;;21.30;99.90;;;;;;4996488;28;20026;-87
2023/08/26 07:08:59;;;;;;;6.05;1.50;;;21.30;99.90;;;;;;4996905;28;20026;-87
2023/08/26 07:11:25;;;;;;;4.15;1.27;;;21.30;99.90;;;;;;4996250;28;20057;-87
2023/08/26 07:13:51;;;;;;;5.00;1.00;;;21.30;99.90;;;;;;5014356;28;20033;-87
2023/08/26 07:16:16;;;;;;;2.65;1.08;;;21.30;99.90;;;;;;5013648;28;20026;-89
2023/08/26 07:18:42;;;;;;;4.28;1.17;;;21.20;99.90;;;;;;4996968;28;20026;-89
2023/08/26 07:21:07;;;;;;;4.03;1.00;;;21.20;99.90;;;;;;5014130;28;20034;-89
2023/08/26 07:23:33;;;;;;;2.83;1.10;;;21.10;99.90;;;;;;4995839;28;20076;-88
2023/08/26 07:25:59;;;;;;;2.05;0.90;;;21.00;99.90;;;;;;5014013;28;20022;-87
2023/08/26 07:28:24;;;;;;;5.47;1.15;;;20.90;99.90;;;;;;4996394;28;20022;-89
2023/08/26 07:30:51;;;;;;;4.80;2.60;;;20.90;99.90;;;;;;4996659;28;20046;-89
2023/08/26 07:33:17;;;;;;;4.03;2.08;;;20.80;99.90;;;;;;5013637;28;20019;-91
2023/08/26 07:35:43;;;;;;;3.88;1.42;;;20.80;99.90;;;;;;4996734;28;20045;-90
2023/08/26 07:38:08;;;;;;;1.85;1.00;;;20.80;99.90;;;;;;4996848;28;20026;-88
2023/08/26 07:40:34;;;;;;;1.42;0.82;;;20.80;99.90;;;;;;5013695;28;20104;-88
2023/08/26 07:43:00;;;;;;;4.00;1.10;;;20.70;99.90;;;;;;4996521;28;20030;-89
2023/08/26 07:45:26;;;;;;;3.35;1.00;;;20.70;99.90;;;;;;4996729;28;20522;-89
2023/08/26 07:47:51;;;;;;;3.42;1.00;;;20.80;99.90;;;;;;4996977;28;20042;-88
2023/08/26 07:50:17;;;;;;;3.38;0.88;;;20.80;99.90;;;;;;4996683;28;20033;-88
2023/08/26 07:52:44;;;;;;;4.13;1.30;;;20.80;99.90;;;;;;4998271;28;20064;-87
2023/08/26 07:55:09;;;;;;;4.20;1.00;;;20.90;99.90;;;;;;4999870;28;20379;-88
2023/08/26 07:57:35;;;;;;;3.00;1.05;;;21.00;99.90;;;;;;4999630;28;20029;-87
2023/08/26 08:00:02;;;;;;;1.40;1.00;;;21.10;99.90;;;;;;5000291;28;20064;-89
2023/08/26 08:02:28;;;;;;;2.40;1.00;;;21.20;99.90;;;;;;4999992;28;20529;-88
2023/08/26 08:04:54;;;;;;;3.92;1.25;;;21.30;99.90;;;;;;5017496;28;20030;-88
2023/08/26 08:07:20;;;;;;;1.15;0.80;;;21.30;99.90;;;;;;5017356;28;20030;-89
2023/08/26 08:09:45;;;;;;;5.32;1.05;;;21.30;99.90;;;;;;4999723;28;20072;-88
2023/08/26 08:12:12;;;;;;;3.95;1.40;;;21.30;99.90;;;;;;5017460;28;20065;-88
2023/08/26 08:14:38;;;;;;;3.05;0.88;;;21.30;99.90;;;;;;4999364;28;20068;-88
2023/08/26 08:17:04;;;;;;;3.15;1.30;;;21.40;99.90;;;;;;4999693;28;20026;-88
2023/08/26 08:19:30;;;;;;;2.40;1.00;;;21.40;99.90;;;;;;4999549;28;20062;-89
2023/08/26 08:21:55;;;;;;;3.33;1.15;;;21.40;99.90;;;;;;5016987;28;20080;-89
2023/08/26 08:24:21;;;;;;;1.98;0.80;;;21.40;99.90;;;;;;5016784;28;20500;-89
2023/08/26 08:26:47;;;;;;;4.07;1.02;;;21.40;99.90;;;;;;5017059;28;20026;-87
2023/08/26 08:29:12;;;;;;;3.25;1.23;;;21.50;99.90;;;;;;4999381;28;20056;-88
2023/08/26 08:31:38;;;;;;;6.10;1.25;;;21.60;99.90;;;;;;4999105;28;20062;-88
2023/08/26 08:34:04;;;;;;;3.45;1.08;;;21.70;99.90;;;;;;4999683;28;20128;-88
2023/08/26 08:36:29;;;;;;;3.20;1.10;;;21.70;99.90;;;;;;4999239;28;20419;-88
2023/08/26 08:38:56;;;;;;;4.10;1.20;;;21.80;99.90;;;;;;5016745;28;20387;-88
2023/08/26 08:41:22;;;;;;;1.15;1.00;;;21.80;99.90;;;;;;4999268;28;20034;-89
2023/08/26 08:43:51;;;;;;;5.57;1.40;;;21.90;99.90;;;;;;4999164;28;20057;-88
2023/08/26 08:46:18;;;;;;;4.25;1.10;;;21.80;99.90;;;;;;5000073;28;20025;-88
2023/08/26 08:48:44;;;;;;;2.30;1.25;;;21.80;99.90;;;;;;4998675;28;20083;-88
2023/08/26 08:51:11;;;;;;;2.05;0.98;;;21.80;99.90;;;;;;5017415;28;20037;-88
2023/08/26 08:53:44;;;;;;;4.63;1.30;;;21.70;99.90;;;;;;5000121;28;20046;-88
2023/08/26 08:56:13;;;;;;;2.90;1.10;;;21.70;99.90;;;;;;5003191;28;20030;-88
2023/08/26 08:58:40;;;;;;;3.50;1.25;;;21.60;99.90;;;;;;5003719;28;20030;-88
2023/08/26 09:01:06;;;;;;;5.78;1.10;;;21.70;99.90;;;;;;5014195;28;20097;-88
2023/08/26 09:03:32;;;;;;;3.22;0.95;;;21.70;99.90;;;;;;5004097;28;20065;-88
2023/08/26 09:05:58;;;;;;;2.85;1.20;;;21.70;99.90;;;;;;4999599;28;20064;-88
2023/08/26 09:08:25;;;;;;;3.33;1.20;;;21.70;99.90;;;;;;4999987;28;20030;-88
2023/08/26 09:10:52;;;;;;;1.85;1.33;;;21.70;99.90;;;;;;4999924;28;20387;-88
2023/08/26 09:13:17;;;;;;;3.63;1.00;;;21.60;99.90;;;;;;5016972;28;20072;-88
2023/08/26 09:15:43;;;;;;;3.08;1.17;;;21.60;99.90;;;;;;5016797;28;20466;-88
2023/08/26 09:18:13;;;;;;;3.42;1.15;;;21.60;99.90;;;;;;5017449;28;20030;-88
2023/08/26 09:20:40;;;;;;;2.47;0.90;;;21.70;99.90;;;;;;4998803;28;20026;-88
2023/08/26 09:23:06;;;;;;;4.65;1.10;;;21.70;99.90;;;;;;4998260;28;20037;-88
2023/08/26 09:25:32;;;;;;;2.70;0.60;;;21.60;99.90;;;;;;4998035;28;20080;-88
2023/08/26 09:27:58;;;;;;;1.80;0.73;;;21.60;99.90;;;;;;4998494;28;20026;-88
2023/08/26 09:30:24;;;;;;;2.50;0.82;;;21.60;99.90;;;;;;4997883;28;20486;-92
2023/08/26 09:32:52;;;;;;;1.55;0.70;;;21.60;99.90;;;;;;4998514;28;20152;-88
2023/08/26 09:35:18;;;;;;;1.20;0.70;;;21.70;99.90;;;;;;4998637;28;20061;-88
2023/08/26 09:37:55;;;;;;;3.10;0.70;;;21.80;99.90;;;;;;4998184;28;20095;-88
2023/08/26 09:40:21;;;;;;;5.38;1.00;;;21.90;99.90;;;;;;4998266;28;20033;-88
2023/08/26 09:42:46;;;;;;;2.85;1.10;;;22.00;99.90;;;;;;4997867;28;20383;-88
2023/08/26 09:45:17;;;;;;;3.28;1.33;;;22.10;99.90;;;;;;4998132;28;20054;-88
2023/08/26 09:47:46;;;;;;;2.05;0.80;;;22.20;99.90;;;;;;4997830;28;20129;-88
2023/08/26 09:50:12;;;;;;;3.40;0.90;;;22.30;99.90;;;;;;5015430;28;20387;-88
2023/08/26 09:52:48;;;;;;;3.00;1.00;;;22.20;99.90;;;;;;4997477;28;20034;-88
2023/08/26 09:55:14;;;;;;;4.57;0.93;;;22.20;99.90;;;;;;4998431;28;20033;-88
2023/08/26 09:57:41;;;;;;;2.75;0.70;;;22.30;99.90;;;;;;4997723;28;20035;-88
2023/08/26 10:00:10;;;;;;;2.97;1.10;;;22.30;99.90;;;;;;5015537;28;20034;-89
2023/08/26 10:02:47;;;;;;;2.92;0.70;;;22.30;99.90;;;;;;5014938;28;20053;-88
2023/08/26 10:05:17;;;;;;;3.47;0.90;;;22.40;99.90;;;;;;5015473;28;20022;-88
2023/08/26 10:07:49;;;;;;;2.20;0.60;;;22.30;99.90;;;;;;4997346;28;20034;-88
2023/08/26 10:10:34;;;;;;;1.67;0.70;;;22.20;99.20;;;;;;4997752;28;20041;-88
2023/08/26 10:13:03;;;;;;;2.38;0.50;;;22.20;96.60;;;;;;4997949;28;20086;-88
2023/08/26 10:15:32;;;;;;;0.82;0.35;;;22.10;96.20;;;;;;4997189;28;20033;-87
2023/08/26 10:18:15;;;;;;;1.60;0.30;;;22.00;94.60;;;;;;4997516;28;20088;-87
2023/08/26 10:20:41;;;;;;;1.40;0.50;;;21.90;95.20;;;;;;4997391;28;20029;-87
2023/08/26 10:23:09;;;;;;;0.60;0.40;;;21.80;95.10;;;;;;4997585;28;20597;-88
2023/08/26 10:25:36;;;;;;;1.98;0.73;;;21.70;94.70;;;;;;4996982;28;20041;-87
2023/08/26 10:28:03;;;;;;;2.65;0.57;;;21.60;95.50;;;;;;4997489;28;20030;-88
2023/08/26 10:30:29;;;;;;;1.45;0.63;;;21.60;95.60;;;;;;4996984;28;20072;-88
2023/08/26 10:33:02;;;;;;;1.38;0.55;;;21.60;96.30;;;;;;4997522;28;20026;-87
2023/08/26 10:35:28;;;;;;;0.98;0.40;;;21.40;95.90;;;;;;4997326;28;20022;-94
2023/08/26 10:38:12;;;;;;;1.30;0.50;;;21.40;96.40;;;;;;4997485;28;20049;-87
2023/08/26 10:40:38;;;;;;;1.85;0.50;;;21.40;97.00;;;;;;5014352;28;20042;-87
2023/08/26 10:43:05;;;;;;;1.13;0.50;;;21.30;97.40;;;;;;5014750;28;20113;-88
2023/08/26 10:45:31;;;;;;;1.05;0.52;;;21.30;97.60;;;;;;4996994;28;20034;-88
2023/08/26 10:47:56;;;;;;;2.03;0.70;;;21.30;97.90;;;;;;4997301;28;20032;-89
2023/08/26 10:50:25;;;;;;;3.15;2.45;;;21.40;98.60;;;;;;4997356;28;20026;-89
2023/08/26 10:53:13;;;;;;;14.70;8.95;;;21.40;98.50;;;;;;4996725;28;20116;-89
2023/08/26 10:55:39;;;;;;;6.15;2.25;;;21.30;99.20;;;;;;4997193;28;20037;-88
2023/08/26 10:58:16;;;;;;;2.30;1.00;;;21.40;99.60;;;;;;4997353;28;20030;-89
2023/08/26 11:00:46;;;;;;;2.10;0.63;;;21.40;99.70;;;;;;4996876;28;20037;-89
2023/08/26 11:03:13;;;;;;;3.78;0.90;;;21.30;98.50;;;;;;5014647;28;20061;-88
2023/08/26 11:05:42;;;;;;;1.95;0.80;;;21.20;98.70;;;;;;4996736;28;20426;-88
2023/08/26 11:08:08;;;;;;;4.25;0.80;;;21.20;99.10;;;;;;5014318;28;20034;-88
2023/08/26 11:10:35;;;;;;;1.10;0.80;;;21.20;99.80;;;;;;4996681;28;20030;-89
2023/08/26 11:13:03;;;;;;;3.85;0.93;;;21.10;99.90;;;;;;4997328;28;20026;-89
2023/08/26 11:15:36;;;;;;;2.80;0.73;;;21.20;99.90;;;;;;4997125;28;20026;-88
2023/08/26 11:18:02;;;;;;;3.50;0.88;;;21.20;99.90;;;;;;4997182;28;20029;-88
2023/08/26 11:20:28;;;;;;;1.90;0.85;;;21.10;99.90;;;;;;4997068;28;20113;-87
2023/08/26 11:22:54;;;;;;;2.75;0.90;;;21.10;99.90;;;;;;4996368;28;20103;-87
2023/08/26 11:25:20;;;;;;;3.15;0.90;;;21.10;99.90;;;;;;5014194;28;20030;-87
2023/08/26 11:27:46;;;;;;;2.58;0.88;;;21.00;99.90;;;;;;4998425;28;20026;-87
2023/08/26 11:30:12;;;;;;;1.75;0.60;;;21.00;99.90;;;;;;5000821;28;20124;-87
2023/08/26 11:32:39;;;;;;;1.90;0.60;;;20.90;99.90;;;;;;5017916;28;20064;-87
2023/08/26 11:35:06;;;;;;;1.48;0.60;;;20.60;99.90;;;;;;5001062;28;20072;-87
2023/08/26 11:37:35;;;;;;;2.45;0.82;;;20.60;99.90;;;;;;5017700;28;20467;-94
2023/08/26 11:40:05;;;;;;;3.75;0.85;;;20.60;99.90;;;;;;5000550;28;20122;-87
2023/08/26 11:42:30;;;;;;;1.15;0.45;;;20.60;99.90;;;;;;5000720;28;20064;-86
2023/08/26 11:44:56;;;;;;;3.30;0.90;;;20.60;99.90;;;;;;5017698;28;20054;-88
2023/08/26 11:47:23;;;;;;;6.38;0.73;;;20.50;99.90;;;;;;5001089;28;20037;-87
2023/08/26 11:49:49;;;;;;;1.65;0.55;;;20.60;99.90;;;;;;5000018;28;20033;-87
2023/08/26 11:52:16;;;;;;;3.53;0.65;;;20.60;99.90;;;;;;5000477;28;20536;-87
2023/08/26 11:54:41;;;;;;;2.00;0.50;;;20.70;99.90;;;;;;5017741;28;20083;-88
2023/08/26 11:57:07;;;;;;;2.55;0.60;;;20.80;99.90;;;;;;5017913;28;20113;-87
2023/08/26 11:59:39;;;;;;;2.45;0.75;;;20.90;99.90;;;;;;5017170;28;20053;-90
2023/08/26 12:02:24;;;;;;;1.77;0.57;;;20.90;99.90;;;;;;5017523;28;20026;-87
2023/08/26 12:04:59;;;;;;;2.15;0.65;;;20.90;99.90;;;;;;4999665;28;20028;-87
2023/08/26 12:07:25;;;;;;;1.45;0.90;;;20.90;99.90;;;;;;5000251;28;20026;-87
2023/08/26 12:09:52;;;;;;;1.92;0.82;;;20.90;99.90;;;;;;4999576;28;20042;-87
2023/08/26 12:12:22;;;;;;;3.03;1.00;;;20.80;99.90;;;;;;5000341;28;20065;-87
2023/08/26 12:14:48;;;;;;;2.85;0.80;;;20.70;99.90;;;;;;4999978;28;20026;-88
2023/08/26 12:17:14;;;;;;;1.67;0.70;;;20.80;99.90;;;;;;5017276;28;20475;-87
2023/08/26 12:19:41;;;;;;;2.15;0.90;;;20.80;99.90;;;;;;4999379;28;20064;-88
2023/08/26 12:22:08;;;;;;;1.60;0.73;;;20.70;99.90;;;;;;4999788;28;21052;-87
2023/08/26 12:24:37;;;;;;;1.63;0.63;;;20.80;99.90;;;;;;5017063;28;20114;-87
2023/08/26 12:27:09;;;;;;;1.85;0.70;;;20.90;99.90;;;;;;4999782;28;20025;-89
2023/08/26 12:29:36;;;;;;;3.60;0.50;;;21.00;99.90;;;;;;4999136;28;20426;-89
2023/08/26 12:32:01;;;;;;;3.05;0.70;;;21.00;99.90;;;;;;5016959;28;20545;-89
2023/08/26 12:34:27;;;;;;;1.70;0.75;;;20.90;99.90;;;;;;4999692;28;20026;-86
2023/08/26 12:36:53;;;;;;;2.50;0.70;;;20.90;99.90;;;;;;5016689;28;20034;-87
2023/08/26 12:39:18;;;;;;;2.88;0.80;;;20.90;99.90;;;;;;5015748;28;20030;-87
2023/08/26 12:41:44;;;;;;;1.08;0.50;;;20.90;99.90;;;;;;5016406;28;20026;-88